createdAt,value
2019-01-14T00:00:39.195Z,0.00
2019-01-14T00:01:39.695Z,0.00
2019-01-14T00:02:39.090Z,0.00
2019-01-14T00:03:39.056Z,0.00
2019-01-14T00:04:39.209Z,0.00
2019-01-14T00:05:39.031Z,0.00
2019-01-14T00:06:39.087Z,0.00
2019-01-14T00:07:39.208Z,0.00
2019-01-14T00:08:39.037Z,0.00
2019-01-14T00:09:39.704Z,0.00
2019-01-14T00:10:38.981Z,0.00
2019-01-14T00:11:38.959Z,0.00
2019-01-14T00:12:39.694Z,0.00
2019-01-14T00:13:38.939Z,0.00
2019-01-14T00:14:39.709Z,0.00
2019-01-14T00:15:38.925Z,0.00
2019-01-14T00:16:40.721Z,0.00
2019-01-14T00:17:38.900Z,0.00
2019-01-14T00:18:40.718Z,0.00
2019-01-14T00:19:46.709Z,0.00
2019-01-14T00:20:39.192Z,0.00
2019-01-14T00:21:39.222Z,0.00
2019-01-14T00:22:41.694Z,0.00
2019-01-14T00:23:38.832Z,0.00
2019-01-14T00:24:38.820Z,0.00
2019-01-14T00:25:38.809Z,0.00
2019-01-14T00:26:38.842Z,0.00
2019-01-14T00:27:44.201Z,0.00
2019-01-14T00:28:38.781Z,0.00
2019-01-14T00:29:38.769Z,0.00
2019-01-14T00:30:39.728Z,0.00
2019-01-14T00:31:38.784Z,0.00
2019-01-14T00:32:39.699Z,0.00
2019-01-14T00:33:38.722Z,0.00
2019-01-14T00:34:39.202Z,0.00
2019-01-14T00:35:41.199Z,0.00
2019-01-14T00:36:38.692Z,0.00
2019-01-14T00:37:40.209Z,0.00
2019-01-14T00:38:38.668Z,0.00
2019-01-14T00:39:40.201Z,0.00
2019-01-14T00:40:38.648Z,0.00
2019-01-14T00:41:38.694Z,0.00
2019-01-14T00:42:38.694Z,0.00
2019-01-14T00:43:38.612Z,0.00
2019-01-14T00:44:39.206Z,0.00
2019-01-14T00:45:38.589Z,0.00
2019-01-14T00:46:39.192Z,0.00
2019-01-14T00:47:40.209Z,0.00
2019-01-14T00:48:41.701Z,0.00
2019-01-14T00:49:38.588Z,0.00
2019-01-14T00:50:38.537Z,0.00
2019-01-14T00:51:38.524Z,0.00
2019-01-14T00:52:40.260Z,0.00
2019-01-14T00:53:41.195Z,0.00
2019-01-14T00:54:38.773Z,0.00
2019-01-14T00:55:38.481Z,0.00
2019-01-14T00:56:43.720Z,0.00
2019-01-14T00:57:38.490Z,0.00
2019-01-14T00:58:38.451Z,0.00
2019-01-14T00:59:41.191Z,0.00
2019-01-14T01:00:38.469Z,0.00
2019-01-14T01:01:39.191Z,0.00
2019-01-14T01:02:40.718Z,0.00
2019-01-14T01:03:38.448Z,0.00
2019-01-14T01:04:38.387Z,0.00
2019-01-14T01:05:38.427Z,0.00
2019-01-14T01:06:38.361Z,0.00
2019-01-14T01:07:38.355Z,0.00
2019-01-14T01:08:38.354Z,0.00
2019-01-14T01:09:38.694Z,0.00
2019-01-14T01:10:39.203Z,0.00
2019-01-14T01:11:38.701Z,0.00
2019-01-14T01:12:38.298Z,0.00
2019-01-14T01:13:38.291Z,0.00
2019-01-14T01:14:40.207Z,0.00
2019-01-14T01:15:38.264Z,0.00
2019-01-14T01:16:38.689Z,0.00
2019-01-14T01:17:38.243Z,0.00
2019-01-14T01:18:39.191Z,0.00
2019-01-14T01:19:38.260Z,0.00
2019-01-14T01:20:38.225Z,0.00
2019-01-14T01:21:40.201Z,0.00
2019-01-14T01:22:39.721Z,0.00
2019-01-14T01:23:38.225Z,0.00
2019-01-14T01:24:38.242Z,0.00
2019-01-14T01:25:38.241Z,0.00
2019-01-14T01:26:38.195Z,0.00
2019-01-14T01:27:38.146Z,0.00
2019-01-14T01:28:38.687Z,0.00
2019-01-14T01:29:38.693Z,0.00
2019-01-14T01:30:38.100Z,0.00
2019-01-14T01:31:38.238Z,0.00
2019-01-14T01:32:38.080Z,0.00
2019-01-14T01:33:38.696Z,0.00
2019-01-14T01:34:42.698Z,0.00
2019-01-14T01:35:39.723Z,0.00
2019-01-14T01:36:44.688Z,0.00
2019-01-14T01:37:38.062Z,0.00
2019-01-14T01:38:39.189Z,0.00
2019-01-14T01:39:38.210Z,0.00
2019-01-14T01:40:38.047Z,0.00
2019-01-14T01:41:38.689Z,0.00
2019-01-14T01:42:38.019Z,0.00
2019-01-14T01:43:38.721Z,0.00
2019-01-14T01:44:38.191Z,0.00
2019-01-14T01:45:37.938Z,0.00
2019-01-14T01:46:37.928Z,0.00
2019-01-14T01:47:37.970Z,0.00
2019-01-14T01:48:38.705Z,0.00
2019-01-14T01:49:37.950Z,0.00
2019-01-14T01:50:37.885Z,0.00
2019-01-14T01:51:37.882Z,0.00
2019-01-14T01:52:37.867Z,0.00
2019-01-14T01:53:39.720Z,0.00
2019-01-14T01:54:38.706Z,0.00
2019-01-14T01:55:39.699Z,0.00
2019-01-14T01:56:37.826Z,0.00
2019-01-14T01:57:38.249Z,0.00
2019-01-14T01:58:38.186Z,0.00
2019-01-14T01:59:37.835Z,0.00
2019-01-14T02:00:37.777Z,0.00
2019-01-14T02:01:38.690Z,0.00
2019-01-14T02:02:37.777Z,0.00
2019-01-14T02:03:37.748Z,0.00
2019-01-14T02:04:37.777Z,0.00
2019-01-14T02:05:37.725Z,0.00
2019-01-14T02:06:39.701Z,0.00
2019-01-14T02:07:37.705Z,0.00
2019-01-14T02:08:39.688Z,0.00
2019-01-14T02:09:38.225Z,0.00
2019-01-14T02:10:37.676Z,0.00
2019-01-14T02:11:37.661Z,0.00
2019-01-14T02:12:38.187Z,0.00
2019-01-14T02:13:37.735Z,0.00
2019-01-14T02:14:37.627Z,0.00
2019-01-14T02:15:38.187Z,0.00
2019-01-14T02:16:38.191Z,0.00
2019-01-14T02:17:38.191Z,0.00
2019-01-14T02:18:37.584Z,0.00
2019-01-14T02:19:38.198Z,0.00
2019-01-14T02:20:38.686Z,0.00
2019-01-14T02:21:38.198Z,0.00
2019-01-14T02:22:37.543Z,0.00
2019-01-14T02:23:39.217Z,0.00
2019-01-14T02:24:38.224Z,0.00
2019-01-14T02:25:39.208Z,0.00
2019-01-14T02:26:37.535Z,0.00
2019-01-14T02:27:37.486Z,0.00
2019-01-14T02:28:39.210Z,0.00
2019-01-14T02:29:39.206Z,0.00
2019-01-14T02:30:37.471Z,0.00
2019-01-14T02:31:38.197Z,0.00
2019-01-14T02:32:40.184Z,0.00
2019-01-14T02:33:37.419Z,0.00
2019-01-14T02:34:38.685Z,0.00
2019-01-14T02:35:38.182Z,0.00
2019-01-14T02:36:37.442Z,0.00
2019-01-14T02:37:37.381Z,0.00
2019-01-14T02:38:38.194Z,0.00
2019-01-14T02:39:40.183Z,0.00
2019-01-14T02:40:42.726Z,0.00
2019-01-14T02:41:37.336Z,0.00
2019-01-14T02:42:37.364Z,0.00
2019-01-14T02:43:37.312Z,0.00
2019-01-14T02:44:37.368Z,0.00
2019-01-14T02:45:38.189Z,0.00
2019-01-14T02:46:37.282Z,0.00
2019-01-14T02:47:37.681Z,0.00
2019-01-14T02:48:37.302Z,0.00
2019-01-14T02:49:40.184Z,0.00
2019-01-14T02:50:37.241Z,0.00
2019-01-14T02:51:37.700Z,0.00
2019-01-14T02:52:39.696Z,0.00
2019-01-14T02:53:37.209Z,0.00
2019-01-14T02:54:37.682Z,0.00
2019-01-14T02:55:37.227Z,0.00
2019-01-14T02:56:37.681Z,0.00
2019-01-14T02:57:37.681Z,0.00
2019-01-14T02:58:37.159Z,0.00
2019-01-14T02:59:37.687Z,0.00
2019-01-14T03:00:37.142Z,0.00
2019-01-14T03:01:37.168Z,0.00
2019-01-14T03:02:37.162Z,0.00
2019-01-14T03:03:37.100Z,0.00
2019-01-14T03:04:37.087Z,0.00
2019-01-14T03:05:39.682Z,0.00
2019-01-14T03:06:37.108Z,0.00
2019-01-14T03:07:37.057Z,0.00
2019-01-14T03:08:37.098Z,0.00
2019-01-14T03:09:37.033Z,0.00
2019-01-14T03:10:37.680Z,0.00
2019-01-14T03:11:37.195Z,0.00
2019-01-14T03:12:37.683Z,0.00
2019-01-14T03:13:37.196Z,0.00
2019-01-14T03:14:36.982Z,0.00
2019-01-14T03:15:36.970Z,0.00
2019-01-14T03:16:36.992Z,0.00
2019-01-14T03:17:36.953Z,0.00
2019-01-14T03:18:38.693Z,0.00
2019-01-14T03:19:37.695Z,0.00
2019-01-14T03:20:36.920Z,0.00
2019-01-14T03:21:36.909Z,0.00
2019-01-14T03:22:36.894Z,0.00
2019-01-14T03:23:37.203Z,0.00
2019-01-14T03:24:36.876Z,0.00
2019-01-14T03:25:37.684Z,0.00
2019-01-14T03:26:38.696Z,0.00
2019-01-14T03:27:36.839Z,0.00
2019-01-14T03:28:37.193Z,0.00
2019-01-14T03:29:39.224Z,0.00
2019-01-14T03:30:36.814Z,0.00
2019-01-14T03:31:38.698Z,0.00
2019-01-14T03:32:39.683Z,0.00
2019-01-14T03:33:37.196Z,0.00
2019-01-14T03:34:37.685Z,0.00
2019-01-14T03:35:38.698Z,0.00
2019-01-14T03:36:36.741Z,0.00
2019-01-14T03:37:36.733Z,0.00
2019-01-14T03:38:37.207Z,0.00
2019-01-14T03:39:36.710Z,0.00
2019-01-14T03:40:37.682Z,0.00
2019-01-14T03:41:38.697Z,0.00
2019-01-14T03:42:36.680Z,0.00
2019-01-14T03:43:37.195Z,0.00
2019-01-14T03:44:36.698Z,0.00
2019-01-14T03:45:38.185Z,0.00
2019-01-14T03:46:37.180Z,0.00
2019-01-14T03:47:36.650Z,0.00
2019-01-14T03:48:36.614Z,0.00
2019-01-14T03:49:38.186Z,0.00
2019-01-14T03:50:36.700Z,0.00
2019-01-14T03:51:37.680Z,0.00
2019-01-14T03:52:41.191Z,0.00
2019-01-14T03:53:37.189Z,0.00
2019-01-14T03:54:37.694Z,0.00
2019-01-14T03:55:36.536Z,0.00
2019-01-14T03:56:36.527Z,0.00
2019-01-14T03:57:37.681Z,0.00
2019-01-14T03:58:37.191Z,0.00
2019-01-14T03:59:36.498Z,0.00
2019-01-14T04:00:38.186Z,0.00
2019-01-14T04:01:36.474Z,0.00
2019-01-14T04:02:38.186Z,0.00
2019-01-14T04:03:36.689Z,0.00
2019-01-14T04:04:36.442Z,0.00
2019-01-14T04:05:37.679Z,0.00
2019-01-14T04:06:36.425Z,0.00
2019-01-14T04:07:37.186Z,0.00
2019-01-14T04:08:36.708Z,0.00
2019-01-14T04:09:39.181Z,0.00
2019-01-14T04:10:37.213Z,0.00
2019-01-14T04:11:38.204Z,0.00
2019-01-14T04:12:36.356Z,0.00
2019-01-14T04:13:37.186Z,0.00
2019-01-14T04:14:37.179Z,0.00
2019-01-14T04:15:36.321Z,0.00
2019-01-14T04:16:38.191Z,0.00
2019-01-14T04:17:37.192Z,0.00
2019-01-14T04:18:37.684Z,0.00
2019-01-14T04:19:36.281Z,0.00
2019-01-14T04:20:39.181Z,0.00
2019-01-14T04:21:36.740Z,0.00
2019-01-14T04:22:47.337Z,0.00
2019-01-14T04:23:38.190Z,0.00
2019-01-14T04:24:37.176Z,0.00
2019-01-14T04:25:37.265Z,0.00
2019-01-14T04:26:36.675Z,0.00
2019-01-14T04:27:36.242Z,0.00
2019-01-14T04:28:37.183Z,0.00
2019-01-14T04:29:36.218Z,0.00
2019-01-14T04:30:37.730Z,0.00
2019-01-14T04:31:36.150Z,0.00
2019-01-14T04:32:36.227Z,0.00
2019-01-14T04:33:36.182Z,0.00
2019-01-14T04:34:38.676Z,0.00
2019-01-14T04:35:37.710Z,0.00
2019-01-14T04:36:36.681Z,0.00
2019-01-14T04:37:36.079Z,0.00
2019-01-14T04:38:36.677Z,0.00
2019-01-14T04:39:36.111Z,0.00
2019-01-14T04:40:36.051Z,0.00
2019-01-14T04:41:37.710Z,0.00
2019-01-14T04:42:36.686Z,0.00
2019-01-14T04:43:36.689Z,0.00
2019-01-14T04:44:36.677Z,0.00
2019-01-14T04:45:36.187Z,0.00
2019-01-14T04:46:35.993Z,0.00
2019-01-14T04:47:37.172Z,0.00
2019-01-14T04:48:36.020Z,0.00
2019-01-14T04:49:35.964Z,0.00
2019-01-14T04:50:36.674Z,0.00
2019-01-14T04:51:36.677Z,0.00
2019-01-14T04:52:36.676Z,0.00
2019-01-14T04:53:35.911Z,0.00
2019-01-14T04:54:35.939Z,0.00
2019-01-14T04:55:35.889Z,0.00
2019-01-14T04:56:37.707Z,0.00
2019-01-14T04:57:37.704Z,0.00
2019-01-14T04:58:35.859Z,0.00
2019-01-14T04:59:42.681Z,0.00
2019-01-14T05:00:36.697Z,0.00
2019-01-14T05:01:38.196Z,0.00
2019-01-14T05:02:37.715Z,0.00
2019-01-14T05:03:37.672Z,0.00
2019-01-14T05:04:46.889Z,0.00
2019-01-14T05:05:39.192Z,0.00
2019-01-14T05:06:40.687Z,0.00
2019-01-14T05:07:36.178Z,0.00
2019-01-14T05:08:35.794Z,0.00
2019-01-14T05:09:38.673Z,0.00
2019-01-14T05:10:39.196Z,0.00
2019-01-14T05:11:36.676Z,0.00
2019-01-14T05:12:35.766Z,0.00
2019-01-14T05:13:36.684Z,0.00
2019-01-14T05:14:35.687Z,0.00
2019-01-14T05:15:37.014Z,0.00
2019-01-14T05:16:37.205Z,0.00
2019-01-14T05:17:35.655Z,0.00
2019-01-14T05:18:35.648Z,0.00
2019-01-14T05:19:36.174Z,0.00
2019-01-14T05:20:35.630Z,0.00
2019-01-14T05:21:35.659Z,0.00
2019-01-14T05:22:35.645Z,0.00
2019-01-14T05:23:35.587Z,0.00
2019-01-14T05:24:35.578Z,0.00
2019-01-14T05:25:35.618Z,0.00
2019-01-14T05:26:35.608Z,0.00
2019-01-14T05:27:35.547Z,0.00
2019-01-14T05:28:35.549Z,0.00
2019-01-14T05:29:35.671Z,0.00
2019-01-14T05:30:37.183Z,0.00
2019-01-14T05:31:35.511Z,0.00
2019-01-14T05:32:35.493Z,0.00
2019-01-14T05:33:37.196Z,0.00
2019-01-14T05:34:36.198Z,0.00
2019-01-14T05:35:35.460Z,0.00
2019-01-14T05:36:35.490Z,0.00
2019-01-14T05:37:37.560Z,0.00
2019-01-14T05:38:35.463Z,0.00
2019-01-14T05:39:35.415Z,0.00
2019-01-14T05:40:40.202Z,0.00
2019-01-14T05:41:38.702Z,0.00
2019-01-14T05:42:35.384Z,0.00
2019-01-14T05:43:36.348Z,0.00
2019-01-14T05:44:35.405Z,0.00
2019-01-14T05:45:35.356Z,0.00
2019-01-14T05:46:35.344Z,0.00
2019-01-14T05:47:35.330Z,0.00
2019-01-14T05:48:37.213Z,0.00
2019-01-14T05:49:36.674Z,0.00
2019-01-14T05:50:35.686Z,0.00
2019-01-14T05:51:37.192Z,0.00
2019-01-14T05:52:35.687Z,0.00
2019-01-14T05:53:36.169Z,0.00
2019-01-14T05:54:35.256Z,0.00
2019-01-14T05:55:36.169Z,0.00
2019-01-14T05:56:35.247Z,0.00
2019-01-14T05:57:35.226Z,0.00
2019-01-14T05:58:35.254Z,0.00
2019-01-14T05:59:37.195Z,0.00
2019-01-14T06:00:35.190Z,0.00
2019-01-14T06:01:35.257Z,0.00
2019-01-14T06:02:35.180Z,0.00
2019-01-14T06:03:36.684Z,0.00
2019-01-14T06:04:35.164Z,0.00
2019-01-14T06:05:39.713Z,0.00
2019-01-14T06:06:35.680Z,0.00
2019-01-14T06:07:35.220Z,0.00
2019-01-14T06:08:35.212Z,0.00
2019-01-14T06:09:35.103Z,0.00
2019-01-14T06:10:35.148Z,0.00
2019-01-14T06:11:36.239Z,0.00
2019-01-14T06:12:35.108Z,0.00
2019-01-14T06:13:35.696Z,0.00
2019-01-14T06:14:35.683Z,0.00
2019-01-14T06:15:36.688Z,0.00
2019-01-14T06:16:35.085Z,0.00
2019-01-14T06:17:35.016Z,0.00
2019-01-14T06:18:35.005Z,0.00
2019-01-14T06:19:35.029Z,0.00
2019-01-14T06:20:34.990Z,0.00
2019-01-14T06:21:35.021Z,0.00
2019-01-14T06:22:36.698Z,0.00
2019-01-14T06:23:37.680Z,0.00
2019-01-14T06:24:34.941Z,0.00
2019-01-14T06:25:34.926Z,0.00
2019-01-14T06:26:36.693Z,0.00
2019-01-14T06:27:34.948Z,0.00
2019-01-14T06:28:34.993Z,0.00
2019-01-14T06:29:34.882Z,0.00
2019-01-14T06:30:35.711Z,0.00
2019-01-14T06:31:36.171Z,0.00
2019-01-14T06:32:34.856Z,0.00
2019-01-14T06:33:34.873Z,0.00
2019-01-14T06:34:34.844Z,0.00
2019-01-14T06:35:34.865Z,0.00
2019-01-14T06:36:34.812Z,0.00
2019-01-14T06:37:34.801Z,0.00
2019-01-14T06:38:35.220Z,0.00
2019-01-14T06:39:34.779Z,0.00
2019-01-14T06:40:34.769Z,0.00
2019-01-14T06:41:34.796Z,0.00
2019-01-14T06:42:35.681Z,0.00
2019-01-14T06:43:35.668Z,0.00
2019-01-14T06:44:34.726Z,0.00
2019-01-14T06:45:35.173Z,0.00
2019-01-14T06:46:34.761Z,0.00
2019-01-14T06:47:35.191Z,0.00
2019-01-14T06:48:36.696Z,0.00
2019-01-14T06:49:36.269Z,0.00
2019-01-14T06:50:34.711Z,0.00
2019-01-14T06:51:34.764Z,0.00
2019-01-14T06:52:34.641Z,0.00
2019-01-14T06:53:34.626Z,0.00
2019-01-14T06:54:37.201Z,4.00
2019-01-14T06:55:34.637Z,4.00
2019-01-14T06:56:34.769Z,4.00
2019-01-14T06:57:34.627Z,4.00
2019-01-14T06:58:34.588Z,4.00
2019-01-14T06:59:34.562Z,0.00
2019-01-14T07:00:34.559Z,4.00
2019-01-14T07:01:34.544Z,4.00
2019-01-14T07:02:34.546Z,4.00
2019-01-14T07:03:34.564Z,4.00
2019-01-14T07:04:34.510Z,4.00
2019-01-14T07:05:34.518Z,4.00
2019-01-14T07:06:34.487Z,4.00
2019-01-14T07:07:34.476Z,8.00
2019-01-14T07:08:34.462Z,4.00
2019-01-14T07:09:34.543Z,12.00
2019-01-14T07:10:34.462Z,12.00
2019-01-14T07:11:34.426Z,20.00
2019-01-14T07:12:34.444Z,24.00
2019-01-14T07:13:34.616Z,28.00
2019-01-14T07:14:34.428Z,32.00
2019-01-14T07:15:37.275Z,36.00
2019-01-14T07:16:34.369Z,40.00
2019-01-14T07:17:34.363Z,44.00
2019-01-14T07:18:34.461Z,48.00
2019-01-14T07:19:34.350Z,52.00
2019-01-14T07:20:34.343Z,60.00
2019-01-14T07:21:35.179Z,64.00
2019-01-14T07:22:34.313Z,72.00
2019-01-14T07:23:34.318Z,68.00
2019-01-14T07:24:34.305Z,72.00
2019-01-14T07:25:34.331Z,88.00
2019-01-14T07:26:34.261Z,88.00
2019-01-14T07:27:34.265Z,96.00
2019-01-14T07:28:34.248Z,108.00
2019-01-14T07:29:34.233Z,124.00
2019-01-14T07:30:34.275Z,136.00
2019-01-14T07:31:34.211Z,144.00
2019-01-14T07:32:34.204Z,160.00
2019-01-14T07:33:34.229Z,184.00
2019-01-14T07:34:34.196Z,200.00
2019-01-14T07:35:34.168Z,208.00
2019-01-14T07:36:34.200Z,228.00
2019-01-14T07:37:34.149Z,240.00
2019-01-14T07:38:34.135Z,232.00
2019-01-14T07:39:34.140Z,212.00
2019-01-14T07:40:34.165Z,204.00
2019-01-14T07:41:34.164Z,200.00
2019-01-14T07:42:34.107Z,164.00
2019-01-14T07:43:34.678Z,144.00
2019-01-14T07:44:34.070Z,120.00
2019-01-14T07:45:34.063Z,120.00
2019-01-14T07:46:34.051Z,136.00
2019-01-14T07:47:34.088Z,152.00
2019-01-14T07:48:34.042Z,204.00
2019-01-14T07:49:34.017Z,316.00
2019-01-14T07:50:34.020Z,352.00
2019-01-14T07:51:34.018Z,408.00
2019-01-14T07:52:34.699Z,468.00
2019-01-14T07:53:34.029Z,492.00
2019-01-14T07:54:33.960Z,468.00
2019-01-14T07:55:33.981Z,456.00
2019-01-14T07:56:33.987Z,440.00
2019-01-14T07:57:33.944Z,452.00
2019-01-14T07:58:33.922Z,428.00
2019-01-14T07:59:33.948Z,356.00
2019-01-14T08:00:33.924Z,304.00
2019-01-14T08:01:33.903Z,284.00
2019-01-14T08:02:33.930Z,268.00
2019-01-14T08:03:33.864Z,276.00
2019-01-14T08:04:33.870Z,268.00
2019-01-14T08:05:33.852Z,256.00
2019-01-14T08:06:33.886Z,212.00
2019-01-14T08:07:33.892Z,204.00
2019-01-14T08:08:33.903Z,232.00
2019-01-14T08:09:33.857Z,244.00
2019-01-14T08:10:33.830Z,268.00
2019-01-14T08:11:33.797Z,308.00
2019-01-14T08:12:33.943Z,328.00
2019-01-14T08:13:33.780Z,304.00
2019-01-14T08:14:33.905Z,332.00
2019-01-14T08:15:33.805Z,344.00
2019-01-14T08:16:33.788Z,348.00
2019-01-14T08:17:34.213Z,392.00
2019-01-14T08:18:33.715Z,384.00
2019-01-14T08:19:33.779Z,348.00
2019-01-14T08:20:35.697Z,304.00
2019-01-14T08:21:33.723Z,284.00
2019-01-14T08:22:33.696Z,292.00
2019-01-14T08:23:33.740Z,328.00
2019-01-14T08:24:33.696Z,356.00
2019-01-14T08:25:33.642Z,388.00
2019-01-14T08:26:33.616Z,372.00
2019-01-14T08:27:33.625Z,340.00
2019-01-14T08:28:33.625Z,360.00
2019-01-14T08:29:33.638Z,392.00
2019-01-14T08:30:33.577Z,416.00
2019-01-14T08:31:33.567Z,392.00
2019-01-14T08:32:33.561Z,380.00
2019-01-14T08:33:33.586Z,368.00
2019-01-14T08:34:33.541Z,396.00
2019-01-14T08:35:33.570Z,432.00
2019-01-14T08:36:33.559Z,392.00
2019-01-14T08:37:33.502Z,372.00
2019-01-14T08:38:33.536Z,416.00
2019-01-14T08:39:33.492Z,428.00
2019-01-14T08:40:33.530Z,420.00
2019-01-14T08:41:33.496Z,472.00
2019-01-14T08:42:33.447Z,508.00
2019-01-14T08:43:33.456Z,544.00
2019-01-14T08:44:33.440Z,564.00
2019-01-14T08:45:33.418Z,552.00
2019-01-14T08:46:33.585Z,544.00
2019-01-14T08:47:33.416Z,552.00
2019-01-14T08:48:33.394Z,572.00
2019-01-14T08:49:33.384Z,496.00
2019-01-14T08:50:33.392Z,508.00
2019-01-14T08:51:33.355Z,680.00
2019-01-14T08:52:33.444Z,916.00
2019-01-14T08:53:34.216Z,1088.00
2019-01-14T08:54:33.320Z,1268.00
2019-01-14T08:55:33.355Z,1540.00
2019-01-14T08:56:33.429Z,1704.00
2019-01-14T08:57:33.287Z,1556.00
2019-01-14T08:58:33.384Z,1096.00
2019-01-14T08:59:33.277Z,684.00
2019-01-14T09:00:33.259Z,468.00
2019-01-14T09:01:33.271Z,360.00
2019-01-14T09:02:33.301Z,332.00
2019-01-14T09:03:33.235Z,304.00
2019-01-14T09:04:33.373Z,336.00
2019-01-14T09:05:33.209Z,296.00
2019-01-14T09:06:33.210Z,340.00
2019-01-14T09:07:33.252Z,440.00
2019-01-14T09:08:33.169Z,468.00
2019-01-14T09:09:33.178Z,516.00
2019-01-14T09:10:33.151Z,528.00
2019-01-14T09:11:33.149Z,584.00
2019-01-14T09:12:33.130Z,756.00
2019-01-14T09:13:33.197Z,856.00
2019-01-14T09:14:33.134Z,896.00
2019-01-14T09:15:33.110Z,924.00
2019-01-14T09:16:33.098Z,980.00
2019-01-14T09:17:33.146Z,1120.00
2019-01-14T09:18:33.060Z,1372.00
2019-01-14T09:19:33.164Z,1464.00
2019-01-14T09:20:33.039Z,1312.00
2019-01-14T09:21:33.097Z,924.00
2019-01-14T09:22:33.017Z,552.00
2019-01-14T09:23:33.088Z,440.00
2019-01-14T09:24:33.008Z,412.00
2019-01-14T09:25:32.984Z,456.00
2019-01-14T09:26:33.016Z,552.00
2019-01-14T09:27:32.961Z,780.00
2019-01-14T09:28:33.002Z,996.00
2019-01-14T09:29:32.941Z,1296.00
2019-01-14T09:30:32.965Z,1652.00
2019-01-14T09:31:32.986Z,1788.00
2019-01-14T09:32:32.924Z,1848.00
2019-01-14T09:33:32.902Z,1900.00
2019-01-14T09:34:32.895Z,1696.00
2019-01-14T09:35:32.883Z,1276.00
2019-01-14T09:36:32.893Z,1060.00
2019-01-14T09:37:32.902Z,1068.00
2019-01-14T09:38:36.004Z,1440.00
2019-01-14T09:39:32.851Z,1668.00
2019-01-14T09:40:32.973Z,1792.00
2019-01-14T09:41:32.806Z,1972.00
2019-01-14T09:42:33.083Z,2508.00
2019-01-14T09:43:32.826Z,3664.00
2019-01-14T09:44:32.777Z,4304.00
2019-01-14T09:45:32.787Z,3996.00
2019-01-14T09:46:32.774Z,3324.00
2019-01-14T09:47:32.779Z,2968.00
2019-01-14T09:48:32.779Z,2932.00
2019-01-14T09:49:32.742Z,2904.00
2019-01-14T09:50:32.771Z,3216.00
2019-01-14T09:51:32.709Z,3160.00
2019-01-14T09:52:32.706Z,3248.00
2019-01-14T09:53:32.679Z,3228.00
2019-01-14T09:54:32.677Z,2980.00
2019-01-14T09:55:32.739Z,2748.00
2019-01-14T09:56:32.684Z,2452.00
2019-01-14T09:57:32.799Z,2284.00
2019-01-14T09:58:32.669Z,2188.00
2019-01-14T09:59:32.635Z,2128.00
2019-01-14T10:00:32.610Z,2180.00
2019-01-14T10:01:32.631Z,2344.00
2019-01-14T10:02:32.585Z,2704.00
2019-01-14T10:03:32.571Z,3040.00
2019-01-14T10:04:32.562Z,3184.00
2019-01-14T10:05:32.557Z,2936.00
2019-01-14T10:06:32.552Z,2528.00
2019-01-14T10:07:32.593Z,2268.00
2019-01-14T10:08:32.520Z,2316.00
2019-01-14T10:09:32.559Z,2644.00
2019-01-14T10:10:32.511Z,3012.00
2019-01-14T10:11:32.513Z,3316.00
2019-01-14T10:12:32.474Z,3440.00
2019-01-14T10:13:32.530Z,3376.00
2019-01-14T10:14:32.458Z,3320.00
2019-01-14T10:15:32.441Z,3444.00
2019-01-14T10:16:32.440Z,3728.00
2019-01-14T10:17:32.423Z,4284.00
2019-01-14T10:18:32.413Z,4928.00
2019-01-14T10:19:32.461Z,5184.00
2019-01-14T10:20:32.395Z,5184.00
2019-01-14T10:21:32.380Z,5048.00
2019-01-14T10:22:32.377Z,4748.00
2019-01-14T10:23:32.355Z,4596.00
2019-01-14T10:24:32.401Z,4552.00
2019-01-14T10:25:32.351Z,4384.00
2019-01-14T10:26:32.342Z,4024.00
2019-01-14T10:27:32.347Z,4088.00
2019-01-14T10:28:32.308Z,4204.00
2019-01-14T10:29:32.295Z,4024.00
2019-01-14T10:30:32.337Z,3828.00
2019-01-14T10:31:32.279Z,3772.00
2019-01-14T10:32:32.260Z,3664.00
2019-01-14T10:33:32.257Z,3840.00
2019-01-14T10:34:32.255Z,4108.00
2019-01-14T10:35:32.243Z,4160.00
2019-01-14T10:36:32.301Z,4184.00
2019-01-14T10:37:32.217Z,4356.00
2019-01-14T10:38:32.272Z,4516.00
2019-01-14T10:39:32.200Z,4808.00
2019-01-14T10:40:32.179Z,4872.00
2019-01-14T10:41:32.162Z,5168.00
2019-01-14T10:42:32.198Z,5260.00
2019-01-14T10:43:32.186Z,5328.00
2019-01-14T10:44:32.206Z,5372.00
2019-01-14T10:45:33.167Z,4944.00
2019-01-14T10:46:32.116Z,4880.00
2019-01-14T10:47:32.848Z,5428.00
2019-01-14T10:48:32.090Z,5604.00
2019-01-14T10:49:32.120Z,5352.00
2019-01-14T10:50:32.106Z,5116.00
2019-01-14T10:51:32.050Z,5292.00
2019-01-14T10:52:32.047Z,5432.00
2019-01-14T10:53:32.041Z,5532.00
2019-01-14T10:54:32.033Z,5504.00
2019-01-14T10:55:32.018Z,5672.00
2019-01-14T10:56:32.044Z,4592.00
2019-01-14T10:57:32.025Z,4184.00
2019-01-14T10:58:31.980Z,4168.00
2019-01-14T10:59:31.968Z,4084.00
2019-01-14T11:00:31.963Z,4028.00
2019-01-14T11:01:31.958Z,4672.00
2019-01-14T11:02:32.161Z,5020.00
2019-01-14T11:03:32.008Z,5656.00
2019-01-14T11:04:31.957Z,6124.00
2019-01-14T11:05:31.900Z,6688.00
2019-01-14T11:06:31.895Z,6500.00
2019-01-14T11:07:31.921Z,5856.00
2019-01-14T11:08:31.912Z,6252.00
2019-01-14T11:09:31.928Z,5812.00
2019-01-14T11:10:31.847Z,5452.00
2019-01-14T11:11:31.836Z,5636.00
2019-01-14T11:12:31.862Z,5688.00
2019-01-14T11:13:31.814Z,6156.00
2019-01-14T11:14:31.856Z,5872.00
2019-01-14T11:15:31.801Z,5632.00
2019-01-14T11:16:31.820Z,4484.00
2019-01-14T11:17:31.818Z,3988.00
2019-01-14T11:18:31.762Z,4568.00
2019-01-14T11:19:31.810Z,4848.00
2019-01-14T11:20:31.748Z,4740.00
2019-01-14T11:21:31.732Z,4776.00
2019-01-14T11:22:31.792Z,4812.00
2019-01-14T11:23:31.712Z,4576.00
2019-01-14T11:24:31.703Z,4276.00
2019-01-14T11:25:31.684Z,3276.00
2019-01-14T11:26:31.714Z,2332.00
2019-01-14T11:27:31.661Z,2108.00
2019-01-14T11:28:31.818Z,1924.00
2019-01-14T11:29:31.650Z,1856.00
2019-01-14T11:30:31.631Z,1736.00
2019-01-14T11:31:31.649Z,1740.00
2019-01-14T11:32:31.632Z,1824.00
2019-01-14T11:33:31.639Z,1792.00
2019-01-14T11:34:31.638Z,1592.00
2019-01-14T11:35:31.581Z,1536.00
2019-01-14T11:36:31.573Z,1768.00
2019-01-14T11:37:31.727Z,2072.00
2019-01-14T11:38:31.608Z,2164.00
2019-01-14T11:39:31.580Z,2024.00
2019-01-14T11:40:31.790Z,1828.00
2019-01-14T11:41:31.579Z,1868.00
2019-01-14T11:42:31.494Z,1816.00
2019-01-14T11:43:31.499Z,1984.00
2019-01-14T11:44:31.496Z,1836.00
2019-01-14T11:45:31.469Z,1336.00
2019-01-14T11:46:31.558Z,1368.00
2019-01-14T11:47:33.572Z,1980.00
2019-01-14T11:48:31.442Z,2292.00
2019-01-14T11:49:31.431Z,2040.00
2019-01-14T11:50:31.415Z,1584.00
2019-01-14T11:51:31.400Z,1772.00
2019-01-14T11:52:31.698Z,1672.00
2019-01-14T11:53:31.390Z,1468.00
2019-01-14T11:54:31.395Z,1624.00
2019-01-14T11:55:31.362Z,1784.00
2019-01-14T11:56:31.355Z,1952.00
2019-01-14T11:57:31.399Z,2020.00
2019-01-14T11:58:31.326Z,1876.00
2019-01-14T11:59:31.315Z,1256.00
2019-01-14T12:00:36.564Z,836.00
2019-01-14T12:01:32.307Z,880.00
2019-01-14T12:02:31.348Z,860.00
2019-01-14T12:03:31.268Z,1164.00
2019-01-14T12:04:31.285Z,1340.00
2019-01-14T12:05:31.263Z,1364.00
2019-01-14T12:06:31.241Z,1620.00
2019-01-14T12:07:31.252Z,1576.00
2019-01-14T12:08:31.268Z,1720.00
2019-01-14T12:09:31.219Z,1552.00
2019-01-14T12:10:31.204Z,1244.00
2019-01-14T12:11:31.231Z,1332.00
2019-01-14T12:12:31.215Z,1496.00
2019-01-14T12:13:31.212Z,1820.00
2019-01-14T12:14:31.176Z,1960.00
2019-01-14T12:15:31.149Z,2200.00
2019-01-14T12:16:31.134Z,2552.00
2019-01-14T12:17:31.123Z,3428.00
2019-01-14T12:18:31.195Z,4256.00
2019-01-14T12:19:31.099Z,4848.00
2019-01-14T12:20:31.093Z,5220.00
2019-01-14T12:21:31.079Z,5168.00
2019-01-14T12:22:31.072Z,4684.00
2019-01-14T12:23:31.062Z,4312.00
2019-01-14T12:24:31.113Z,4260.00
2019-01-14T12:25:31.042Z,4396.00
2019-01-14T12:26:31.027Z,4516.00
2019-01-14T12:27:31.020Z,4716.00
2019-01-14T12:28:31.069Z,4776.00
2019-01-14T12:29:30.996Z,4656.00
2019-01-14T12:30:31.049Z,4560.00
2019-01-14T12:31:30.983Z,4380.00
2019-01-14T12:32:30.957Z,4168.00
2019-01-14T12:33:30.949Z,4112.00
2019-01-14T12:34:30.943Z,4320.00
2019-01-14T12:35:30.928Z,4648.00
2019-01-14T12:36:30.958Z,4764.00
2019-01-14T12:37:30.960Z,4668.00
2019-01-14T12:38:30.939Z,4648.00
2019-01-14T12:39:30.934Z,4632.00
2019-01-14T12:40:30.925Z,4720.00
2019-01-14T12:41:30.869Z,4884.00
2019-01-14T12:42:30.852Z,5452.00
2019-01-14T12:43:30.865Z,5692.00
2019-01-14T12:44:30.854Z,5796.00
2019-01-14T12:45:30.821Z,5408.00
2019-01-14T12:46:30.856Z,5500.00
2019-01-14T12:47:30.811Z,6228.00
2019-01-14T12:48:30.787Z,5828.00
2019-01-14T12:49:30.776Z,6384.00